sensor_id;sensor_type;location;lat;lon;timestamp;temperature;humidity
12604;DHT22;6367;52.508;13.284;2023-11-21T00:00:13;12.60;99.90
12604;DHT22;6367;52.508;13.284;2023-11-21T00:02:39;12.50;99.90
12604;DHT22;6367;52.508;13.284;2023-11-21T00:05:08;12.50;99.90
12604;DHT22;6367;52.508;13.284;2023-11-21T00:07:33;12.50;99.90
12604;DHT22;6367;52.508;13.284;2023-11-21T00:09:59;12.40;99.90
12604;DHT22;6367;52.508;13.284;2023-11-21T00:12:25;13.00;99.90
12604;DHT22;6367;52.508;13.284;2023-11-21T00:14:50;12.20;99.90
12604;DHT22;6367;52.508;13.284;2023-11-21T00:17:16;12.10;99.90
12604;DHT22;6367;52.508;13.284;2023-11-21T00:19:41;12.10;99.90
12604;DHT22;6367;52.508;13.284;2023-11-21T00:22:08;12.00;99.90
12604;DHT22;6367;52.508;13.284;2023-11-21T00:24:34;12.10;99.90
12604;DHT22;6367;52.508;13.284;2023-11-21T00:27:00;12.40;99.90
12604;DHT22;6367;52.508;13.284;2023-11-21T00:29:26;11.90;99.90
12604;DHT22;6367;52.508;13.284;2023-11-21T00:31:52;11.80;99.90
12604;DHT22;6367;52.508;13.284;2023-11-21T00:34:18;11.80;99.90
12604;DHT22;6367;52.508;13.284;2023-11-21T00:36:45;11.70;99.90
12604;DHT22;6367;52.508;13.284;2023-11-21T00:39:10;11.70;99.90
12604;DHT22;6367;52.508;13.284;2023-11-21T00:41:37;11.60;99.90
12604;DHT22;6367;52.508;13.284;2023-11-21T00:44:03;11.60;99.90
12604;DHT22;6367;52.508;13.284;2023-11-21T00:46:29;11.50;99.90
12604;DHT22;6367;52.508;13.284;2023-11-21T00:48:55;11.60;99.90
12604;DHT22;6367;52.508;13.284;2023-11-21T00:51:21;11.60;99.90
12604;DHT22;6367;52.508;13.284;2023-11-21T00:53:47;11.50;99.90
12604;DHT22;6367;52.508;13.284;2023-11-21T00:56:13;11.50;99.90
12604;DHT22;6367;52.508;13.284;2023-11-21T00:58:39;11.40;99.90
12604;DHT22;6367;52.508;13.284;2023-11-21T01:01:09;11.30;99.90
12604;DHT22;6367;52.508;13.284;2023-11-21T01:03:35;11.30;99.90
12604;DHT22;6367;52.508;13.284;2023-11-21T01:06:00;11.30;99.90
12604;DHT22;6367;52.508;13.284;2023-11-21T01:08:26;11.20;99.90
12604;DHT22;6367;52.508;13.284;2023-11-21T01:10:52;11.10;99.90
12604;DHT22;6367;52.508;13.284;2023-11-21T01:13:18;11.00;99.90
12604;DHT22;6367;52.508;13.284;2023-11-21T01:15:43;11.40;99.90
12604;DHT22;6367;52.508;13.284;2023-11-21T01:18:09;10.90;99.90
12604;DHT22;6367;52.508;13.284;2023-11-21T01:20:35;10.90;99.90
12604;DHT22;6367;52.508;13.284;2023-11-21T01:23:00;10.90;99.90
12604;DHT22;6367;52.508;13.284;2023-11-21T01:25:26;11.00;99.90
12604;DHT22;6367;52.508;13.284;2023-11-21T01:27:52;11.00;99.90
12604;DHT22;6367;52.508;13.284;2023-11-21T01:30:18;11.00;99.90
12604;DHT22;6367;52.508;13.284;2023-11-21T01:32:43;11.00;99.90
12604;DHT22;6367;52.508;13.284;2023-11-21T01:35:09;11.00;99.90
12604;DHT22;6367;52.508;13.284;2023-11-21T01:37:36;11.10;99.90
12604;DHT22;6367;52.508;13.284;2023-11-21T01:40:03;11.10;99.90
12604;DHT22;6367;52.508;13.284;2023-11-21T01:42:33;11.20;99.90
12604;DHT22;6367;52.508;13.284;2023-11-21T01:45:00;11.20;99.90
12604;DHT22;6367;52.508;13.284;2023-11-21T01:47:33;11.20;99.90
12604;DHT22;6367;52.508;13.284;2023-11-21T01:49:59;11.10;99.90
12604;DHT22;6367;52.508;13.284;2023-11-21T01:52:25;11.10;99.90
12604;DHT22;6367;52.508;13.284;2023-11-21T01:54:52;11.10;99.90
12604;DHT22;6367;52.508;13.284;2023-11-21T01:57:20;11.10;99.90
12604;DHT22;6367;52.508;13.284;2023-11-21T01:59:48;11.00;99.90
12604;DHT22;6367;52.508;13.284;2023-11-21T02:02:14;11.00;99.90
12604;DHT22;6367;52.508;13.284;2023-11-21T02:04:41;11.10;99.90
12604;DHT22;6367;52.508;13.284;2023-11-21T02:07:07;11.00;99.90
12604;DHT22;6367;52.508;13.284;2023-11-21T02:09:33;10.90;99.90
12604;DHT22;6367;52.508;13.284;2023-11-21T02:11:59;10.90;99.90
12604;DHT22;6367;52.508;13.284;2023-11-21T02:14:26;10.90;99.90
12604;DHT22;6367;52.508;13.284;2023-11-21T02:16:54;11.00;99.90
12604;DHT22;6367;52.508;13.284;2023-11-21T02:19:21;10.90;99.90
12604;DHT22;6367;52.508;13.284;2023-11-21T02:21:56;10.90;99.90
12604;DHT22;6367;52.508;13.284;2023-11-21T02:24:25;10.90;99.90
12604;DHT22;6367;52.508;13.284;2023-11-21T02:26:51;10.90;99.90
12604;DHT22;6367;52.508;13.284;2023-11-21T02:29:20;10.90;99.90
12604;DHT22;6367;52.508;13.284;2023-11-21T02:31:53;10.90;99.90
12604;DHT22;6367;52.508;13.284;2023-11-21T02:34:21;10.80;99.90
12604;DHT22;6367;52.508;13.284;2023-11-21T02:36:47;10.80;99.90
12604;DHT22;6367;52.508;13.284;2023-11-21T02:39:16;10.80;99.90
12604;DHT22;6367;52.508;13.284;2023-11-21T02:41:43;10.80;99.90
12604;DHT22;6367;52.508;13.284;2023-11-21T02:44:09;10.70;99.90
12604;DHT22;6367;52.508;13.284;2023-11-21T02:46:35;10.70;99.90
12604;DHT22;6367;52.508;13.284;2023-11-21T02:49:03;10.70;99.90
12604;DHT22;6367;52.508;13.284;2023-11-21T02:51:29;10.80;99.90
12604;DHT22;6367;52.508;13.284;2023-11-21T02:53:56;10.80;99.90
12604;DHT22;6367;52.508;13.284;2023-11-21T02:56:26;10.70;99.90
12604;DHT22;6367;52.508;13.284;2023-11-21T02:58:52;10.70;99.90
12604;DHT22;6367;52.508;13.284;2023-11-21T03:01:18;10.70;99.90
12604;DHT22;6367;52.508;13.284;2023-11-21T03:03:44;10.60;99.90
12604;DHT22;6367;52.508;13.284;2023-11-21T03:06:09;10.60;99.90
12604;DHT22;6367;52.508;13.284;2023-11-21T03:08:35;10.70;99.90
12604;DHT22;6367;52.508;13.284;2023-11-21T03:11:01;10.60;99.90
12604;DHT22;6367;52.508;13.284;2023-11-21T03:13:29;10.60;99.90
12604;DHT22;6367;52.508;13.284;2023-11-21T03:15:54;11.00;99.90
12604;DHT22;6367;52.508;13.284;2023-11-21T03:18:21;10.50;99.90
12604;DHT22;6367;52.508;13.284;2023-11-21T03:20:51;10.50;99.90
12604;DHT22;6367;52.508;13.284;2023-11-21T03:23:17;10.40;99.90
12604;DHT22;6367;52.508;13.284;2023-11-21T03:25:43;10.40;99.90
12604;DHT22;6367;52.508;13.284;2023-11-21T03:28:09;10.30;99.90
12604;DHT22;6367;52.508;13.284;2023-11-21T03:30:34;10.20;99.90
12604;DHT22;6367;52.508;13.284;2023-11-21T03:33:00;10.40;99.90
12604;DHT22;6367;52.508;13.284;2023-11-21T03:35:25;10.30;99.90
12604;DHT22;6367;52.508;13.284;2023-11-21T03:37:51;9.50;99.90
12604;DHT22;6367;52.508;13.284;2023-11-21T03:40:17;10.00;99.90
12604;DHT22;6367;52.508;13.284;2023-11-21T03:42:43;10.00;99.90
12604;DHT22;6367;52.508;13.284;2023-11-21T03:45:09;10.60;99.90
12604;DHT22;6367;52.508;13.284;2023-11-21T03:47:35;10.10;99.90
12604;DHT22;6367;52.508;13.284;2023-11-21T03:50:00;10.20;99.90
12604;DHT22;6367;52.508;13.284;2023-11-21T03:52:26;10.20;99.90
12604;DHT22;6367;52.508;13.284;2023-11-21T03:54:53;10.10;99.90
12604;DHT22;6367;52.508;13.284;2023-11-21T03:57:20;10.10;99.90
12604;DHT22;6367;52.508;13.284;2023-11-21T03:59:46;10.10;99.90
12604;DHT22;6367;52.508;13.284;2023-11-21T04:02:12;10.10;99.90
12604;DHT22;6367;52.508;13.284;2023-11-21T04:04:38;10.20;99.90
12604;DHT22;6367;52.508;13.284;2023-11-21T04:07:05;10.20;99.90
12604;DHT22;6367;52.508;13.284;2023-11-21T04:09:30;10.10;99.90
12604;DHT22;6367;52.508;13.284;2023-11-21T04:11:56;10.30;99.90
12604;DHT22;6367;52.508;13.284;2023-11-21T04:14:22;10.30;99.90
12604;DHT22;6367;52.508;13.284;2023-11-21T04:16:48;10.30;99.90
12604;DHT22;6367;52.508;13.284;2023-11-21T04:19:14;10.20;99.90
12604;DHT22;6367;52.508;13.284;2023-11-21T04:21:41;10.20;99.90
12604;DHT22;6367;52.508;13.284;2023-11-21T04:24:07;10.20;99.90
12604;DHT22;6367;52.508;13.284;2023-11-21T04:26:32;10.20;99.90
12604;DHT22;6367;52.508;13.284;2023-11-21T04:28:58;10.20;99.90
12604;DHT22;6367;52.508;13.284;2023-11-21T04:31:24;10.20;99.90
12604;DHT22;6367;52.508;13.284;2023-11-21T04:33:49;10.20;99.90
12604;DHT22;6367;52.508;13.284;2023-11-21T04:36:15;10.70;99.90
12604;DHT22;6367;52.508;13.284;2023-11-21T04:38:41;10.30;99.90
12604;DHT22;6367;52.508;13.284;2023-11-21T04:41:08;10.20;99.90
12604;DHT22;6367;52.508;13.284;2023-11-21T04:43:33;10.20;99.90
12604;DHT22;6367;52.508;13.284;2023-11-21T04:45:59;10.20;99.90
12604;DHT22;6367;52.508;13.284;2023-11-21T04:48:25;10.30;99.90
12604;DHT22;6367;52.508;13.284;2023-11-21T04:50:51;10.30;99.90
12604;DHT22;6367;52.508;13.284;2023-11-21T04:53:17;10.30;99.90
12604;DHT22;6367;52.508;13.284;2023-11-21T04:55:43;10.40;99.90
12604;DHT22;6367;52.508;13.284;2023-11-21T04:58:09;10.40;99.90
12604;DHT22;6367;52.508;13.284;2023-11-21T05:00:35;10.20;99.90
12604;DHT22;6367;52.508;13.284;2023-11-21T05:03:02;10.30;99.90
12604;DHT22;6367;52.508;13.284;2023-11-21T05:05:29;10.30;99.90
12604;DHT22;6367;52.508;13.284;2023-11-21T05:07:55;10.30;99.90
12604;DHT22;6367;52.508;13.284;2023-11-21T05:10:21;10.30;99.90
12604;DHT22;6367;52.508;13.284;2023-11-21T05:12:48;10.70;99.90
12604;DHT22;6367;52.508;13.284;2023-11-21T05:15:16;10.10;99.90
12604;DHT22;6367;52.508;13.284;2023-11-21T05:17:45;10.10;99.90
12604;DHT22;6367;52.508;13.284;2023-11-21T05:20:14;10.20;99.90
12604;DHT22;6367;52.508;13.284;2023-11-21T05:22:43;10.10;99.90
12604;DHT22;6367;52.508;13.284;2023-11-21T05:25:09;10.10;99.90
12604;DHT22;6367;52.508;13.284;2023-11-21T05:27:35;10.10;99.90
12604;DHT22;6367;52.508;13.284;2023-11-21T05:30:05;10.10;99.90
12604;DHT22;6367;52.508;13.284;2023-11-21T05:32:31;10.10;99.90
12604;DHT22;6367;52.508;13.284;2023-11-21T05:34:57;10.40;99.90
12604;DHT22;6367;52.508;13.284;2023-11-21T05:37:24;10.10;99.90
12604;DHT22;6367;52.508;13.284;2023-11-21T05:39:51;10.10;99.90
12604;DHT22;6367;52.508;13.284;2023-11-21T05:42:16;10.10;99.90
12604;DHT22;6367;52.508;13.284;2023-11-21T05:44:42;10.10;99.90
12604;DHT22;6367;52.508;13.284;2023-11-21T05:47:12;10.10;99.90
12604;DHT22;6367;52.508;13.284;2023-11-21T05:49:39;10.10;99.90
12604;DHT22;6367;52.508;13.284;2023-11-21T05:52:05;10.00;99.90
12604;DHT22;6367;52.508;13.284;2023-11-21T05:54:31;10.10;99.90
12604;DHT22;6367;52.508;13.284;2023-11-21T05:56:57;10.10;99.90
12604;DHT22;6367;52.508;13.284;2023-11-21T05:59:23;10.00;99.90
12604;DHT22;6367;52.508;13.284;2023-11-21T06:01:48;9.90;99.90
12604;DHT22;6367;52.508;13.284;2023-11-21T06:04:14;10.30;99.90
12604;DHT22;6367;52.508;13.284;2023-11-21T06:06:40;9.90;99.90
12604;DHT22;6367;52.508;13.284;2023-11-21T06:09:05;9.90;99.90
12604;DHT22;6367;52.508;13.284;2023-11-21T06:11:33;10.50;99.90
12604;DHT22;6367;52.508;13.284;2023-11-21T06:13:59;9.90;99.90
12604;DHT22;6367;52.508;13.284;2023-11-21T06:16:25;9.90;99.90
12604;DHT22;6367;52.508;13.284;2023-11-21T06:18:51;9.80;99.90
12604;DHT22;6367;52.508;13.284;2023-11-21T06:21:16;9.80;99.90
12604;DHT22;6367;52.508;13.284;2023-11-21T06:23:43;9.80;99.90
12604;DHT22;6367;52.508;13.284;2023-11-21T06:26:09;9.80;99.90
12604;DHT22;6367;52.508;13.284;2023-11-21T06:28:35;9.80;99.90
12604;DHT22;6367;52.508;13.284;2023-11-21T06:31:02;9.80;99.90
12604;DHT22;6367;52.508;13.284;2023-11-21T06:33:31;9.90;99.90
12604;DHT22;6367;52.508;13.284;2023-11-21T06:35:57;9.90;99.90
12604;DHT22;6367;52.508;13.284;2023-11-21T06:38:23;9.80;99.90
12604;DHT22;6367;52.508;13.284;2023-11-21T06:40:49;9.90;99.90
12604;DHT22;6367;52.508;13.284;2023-11-21T06:43:14;9.80;99.90
12604;DHT22;6367;52.508;13.284;2023-11-21T06:45:40;9.80;99.90
12604;DHT22;6367;52.508;13.284;2023-11-21T06:48:06;9.90;99.90
12604;DHT22;6367;52.508;13.284;2023-11-21T06:50:32;9.90;99.90
12604;DHT22;6367;52.508;13.284;2023-11-21T06:52:57;9.80;99.90
12604;DHT22;6367;52.508;13.284;2023-11-21T06:55:23;9.90;99.90
12604;DHT22;6367;52.508;13.284;2023-11-21T06:57:49;9.90;99.90
12604;DHT22;6367;52.508;13.284;2023-11-21T07:00:16;9.80;99.90
12604;DHT22;6367;52.508;13.284;2023-11-21T07:02:43;9.80;99.90
12604;DHT22;6367;52.508;13.284;2023-11-21T07:05:09;9.70;99.90
12604;DHT22;6367;52.508;13.284;2023-11-21T07:07:35;9.70;99.90
12604;DHT22;6367;52.508;13.284;2023-11-21T07:10:02;9.70;99.90
12604;DHT22;6367;52.508;13.284;2023-11-21T07:12:30;9.70;99.90
12604;DHT22;6367;52.508;13.284;2023-11-21T07:14:57;9.70;99.90
12604;DHT22;6367;52.508;13.284;2023-11-21T07:17:22;9.80;99.90
12604;DHT22;6367;52.508;13.284;2023-11-21T07:19:48;9.80;99.90
12604;DHT22;6367;52.508;13.284;2023-11-21T07:22:15;9.70;99.90
12604;DHT22;6367;52.508;13.284;2023-11-21T07:24:48;9.80;99.90
12604;DHT22;6367;52.508;13.284;2023-11-21T07:27:16;9.80;99.90
12604;DHT22;6367;52.508;13.284;2023-11-21T07:29:42;9.70;99.90
12604;DHT22;6367;52.508;13.284;2023-11-21T07:32:08;9.80;99.90
12604;DHT22;6367;52.508;13.284;2023-11-21T07:34:35;9.80;99.90
12604;DHT22;6367;52.508;13.284;2023-11-21T07:37:01;9.70;99.90
12604;DHT22;6367;52.508;13.284;2023-11-21T07:39:28;9.80;99.90
12604;DHT22;6367;52.508;13.284;2023-11-21T07:41:55;9.80;99.90
12604;DHT22;6367;52.508;13.284;2023-11-21T07:44:20;9.80;99.90
12604;DHT22;6367;52.508;13.284;2023-11-21T07:46:47;9.70;99.90
12604;DHT22;6367;52.508;13.284;2023-11-21T07:49:13;9.90;99.90
12604;DHT22;6367;52.508;13.284;2023-11-21T07:51:43;9.80;99.90
12604;DHT22;6367;52.508;13.284;2023-11-21T07:54:09;9.80;99.90
12604;DHT22;6367;52.508;13.284;2023-11-21T07:56:35;9.80;99.90
12604;DHT22;6367;52.508;13.284;2023-11-21T07:59:01;10.00;99.90
12604;DHT22;6367;52.508;13.284;2023-11-21T08:01:26;9.10;99.90
12604;DHT22;6367;52.508;13.284;2023-11-21T08:03:54;9.90;99.90
12604;DHT22;6367;52.508;13.284;2023-11-21T08:06:23;9.90;99.90
12604;DHT22;6367;52.508;13.284;2023-11-21T08:08:49;9.90;99.90
12604;DHT22;6367;52.508;13.284;2023-11-21T08:11:15;9.90;99.90
12604;DHT22;6367;52.508;13.284;2023-11-21T08:13:40;9.90;99.90
12604;DHT22;6367;52.508;13.284;2023-11-21T08:16:06;10.00;99.90
12604;DHT22;6367;52.508;13.284;2023-11-21T08:18:32;10.00;99.90
12604;DHT22;6367;52.508;13.284;2023-11-21T08:20:59;10.00;99.90
12604;DHT22;6367;52.508;13.284;2023-11-21T08:23:26;9.90;99.90
12604;DHT22;6367;52.508;13.284;2023-11-21T08:25:54;9.90;99.90
12604;DHT22;6367;52.508;13.284;2023-11-21T08:28:21;9.90;99.90
12604;DHT22;6367;52.508;13.284;2023-11-21T08:30:52;9.90;99.90
12604;DHT22;6367;52.508;13.284;2023-11-21T08:33:17;9.90;99.90
12604;DHT22;6367;52.508;13.284;2023-11-21T08:35:44;10.20;99.90
12604;DHT22;6367;52.508;13.284;2023-11-21T08:38:11;10.00;99.90
12604;DHT22;6367;52.508;13.284;2023-11-21T08:40:37;9.90;99.90
12604;DHT22;6367;52.508;13.284;2023-11-21T08:43:03;9.80;99.90
12604;DHT22;6367;52.508;13.284;2023-11-21T08:45:30;9.90;99.90
12604;DHT22;6367;52.508;13.284;2023-11-21T08:47:56;9.80;99.90
12604;DHT22;6367;52.508;13.284;2023-11-21T08:50:22;9.80;99.90
12604;DHT22;6367;52.508;13.284;2023-11-21T08:52:48;9.80;99.90
12604;DHT22;6367;52.508;13.284;2023-11-21T08:55:14;9.80;99.90
12604;DHT22;6367;52.508;13.284;2023-11-21T08:57:40;9.80;99.90
12604;DHT22;6367;52.508;13.284;2023-11-21T09:00:10;9.80;99.90
12604;DHT22;6367;52.508;13.284;2023-11-21T09:02:41;9.70;99.90
12604;DHT22;6367;52.508;13.284;2023-11-21T09:05:08;9.80;99.90
12604;DHT22;6367;52.508;13.284;2023-11-21T09:07:35;9.80;99.90
12604;DHT22;6367;52.508;13.284;2023-11-21T09:10:01;9.70;99.90
12604;DHT22;6367;52.508;13.284;2023-11-21T09:12:27;9.70;99.90
12604;DHT22;6367;52.508;13.284;2023-11-21T09:14:53;9.60;99.90
12604;DHT22;6367;52.508;13.284;2023-11-21T09:17:18;9.70;99.90
12604;DHT22;6367;52.508;13.284;2023-11-21T09:19:44;9.80;99.90
12604;DHT22;6367;52.508;13.284;2023-11-21T09:22:12;9.80;99.90
12604;DHT22;6367;52.508;13.284;2023-11-21T09:24:38;9.80;99.90
12604;DHT22;6367;52.508;13.284;2023-11-21T09:27:04;9.80;99.90
12604;DHT22;6367;52.508;13.284;2023-11-21T09:29:30;9.80;99.90
12604;DHT22;6367;52.508;13.284;2023-11-21T09:31:57;9.80;99.90
12604;DHT22;6367;52.508;13.284;2023-11-21T09:34:25;9.80;99.90
12604;DHT22;6367;52.508;13.284;2023-11-21T09:36:51;9.90;99.90
12604;DHT22;6367;52.508;13.284;2023-11-21T09:39:17;9.80;99.90
12604;DHT22;6367;52.508;13.284;2023-11-21T09:42:25;9.70;99.90
12604;DHT22;6367;52.508;13.284;2023-11-21T09:45:03;9.60;99.90
12604;DHT22;6367;52.508;13.284;2023-11-21T09:47:34;9.70;99.90
12604;DHT22;6367;52.508;13.284;2023-11-21T09:50:02;9.60;99.90
12604;DHT22;6367;52.508;13.284;2023-11-21T09:52:28;9.70;99.90
12604;DHT22;6367;52.508;13.284;2023-11-21T09:54:55;9.80;99.90
12604;DHT22;6367;52.508;13.284;2023-11-21T09:57:24;9.70;99.90
12604;DHT22;6367;52.508;13.284;2023-11-21T09:59:54;9.70;99.90
12604;DHT22;6367;52.508;13.284;2023-11-21T10:02:33;9.70;99.90
12604;DHT22;6367;52.508;13.284;2023-11-21T10:05:02;9.80;99.90
12604;DHT22;6367;52.508;13.284;2023-11-21T10:07:31;9.80;99.90
12604;DHT22;6367;52.508;13.284;2023-11-21T10:09:58;9.70;99.90
12604;DHT22;6367;52.508;13.284;2023-11-21T10:12:26;9.60;99.90
12604;DHT22;6367;52.508;13.284;2023-11-21T10:14:53;9.70;99.90
12604;DHT22;6367;52.508;13.284;2023-11-21T10:17:23;8.80;99.90
12604;DHT22;6367;52.508;13.284;2023-11-21T10:19:52;9.70;99.90
12604;DHT22;6367;52.508;13.284;2023-11-21T10:22:20;9.80;99.90
12604;DHT22;6367;52.508;13.284;2023-11-21T10:24:46;9.30;99.90
12604;DHT22;6367;52.508;13.284;2023-11-21T10:27:11;9.70;99.90
12604;DHT22;6367;52.508;13.284;2023-11-21T10:29:39;9.70;99.90
12604;DHT22;6367;52.508;13.284;2023-11-21T10:32:05;9.70;99.90
12604;DHT22;6367;52.508;13.284;2023-11-21T10:34:31;9.70;99.90
12604;DHT22;6367;52.508;13.284;2023-11-21T10:36:57;9.60;99.90
12604;DHT22;6367;52.508;13.284;2023-11-21T10:39:23;9.60;99.90
12604;DHT22;6367;52.508;13.284;2023-11-21T10:41:53;9.50;99.90
12604;DHT22;6367;52.508;13.284;2023-11-21T10:44:20;9.50;99.90
12604;DHT22;6367;52.508;13.284;2023-11-21T10:46:51;9.40;99.90
12604;DHT22;6367;52.508;13.284;2023-11-21T10:49:18;9.60;99.90
12604;DHT22;6367;52.508;13.284;2023-11-21T10:51:44;9.50;99.90
12604;DHT22;6367;52.508;13.284;2023-11-21T10:54:10;9.60;99.90
12604;DHT22;6367;52.508;13.284;2023-11-21T10:56:39;9.60;99.90
12604;DHT22;6367;52.508;13.284;2023-11-21T10:59:12;9.60;99.90
12604;DHT22;6367;52.508;13.284;2023-11-21T11:01:44;9.60;99.90
12604;DHT22;6367;52.508;13.284;2023-11-21T11:04:12;9.40;99.90
12604;DHT22;6367;52.508;13.284;2023-11-21T11:06:50;9.50;99.90
12604;DHT22;6367;52.508;13.284;2023-11-21T11:09:17;9.40;99.90
12604;DHT22;6367;52.508;13.284;2023-11-21T11:11:43;9.50;99.90
12604;DHT22;6367;52.508;13.284;2023-11-21T11:14:13;9.50;99.90
12604;DHT22;6367;52.508;13.284;2023-11-21T11:16:40;9.50;99.90
12604;DHT22;6367;52.508;13.284;2023-11-21T11:19:09;9.40;99.90
12604;DHT22;6367;52.508;13.284;2023-11-21T11:22:03;9.40;99.90
12604;DHT22;6367;52.508;13.284;2023-11-21T11:30:44;9.40;99.90
12604;DHT22;6367;52.508;13.284;2023-11-21T11:39:00;9.40;99.90
12604;DHT22;6367;52.508;13.284;2023-11-21T11:41:30;9.50;99.90
12604;DHT22;6367;52.508;13.284;2023-11-21T11:43:58;9.40;99.90
12604;DHT22;6367;52.508;13.284;2023-11-21T11:46:41;9.30;99.90
12604;DHT22;6367;52.508;13.284;2023-11-21T11:49:07;9.30;99.90
12604;DHT22;6367;52.508;13.284;2023-11-21T11:51:33;9.30;99.90
12604;DHT22;6367;52.508;13.284;2023-11-21T11:54:01;9.30;99.90
12604;DHT22;6367;52.508;13.284;2023-11-21T11:56:29;9.30;99.90
12604;DHT22;6367;52.508;13.284;2023-11-21T11:58:58;9.30;99.90
12604;DHT22;6367;52.508;13.284;2023-11-21T12:01:26;9.70;99.90
12604;DHT22;6367;52.508;13.284;2023-11-21T12:06:36;8.80;99.90
12604;DHT22;6367;52.508;13.284;2023-11-21T12:09:05;9.10;99.90
12604;DHT22;6367;52.508;13.284;2023-11-21T12:11:31;9.10;99.90
12604;DHT22;6367;52.508;13.284;2023-11-21T12:13:58;9.10;99.90
12604;DHT22;6367;52.508;13.284;2023-11-21T12:16:25;9.10;99.90
12604;DHT22;6367;52.508;13.284;2023-11-21T12:18:53;9.00;99.90
12604;DHT22;6367;52.508;13.284;2023-11-21T12:21:20;9.00;99.90
12604;DHT22;6367;52.508;13.284;2023-11-21T12:23:46;9.00;99.90
12604;DHT22;6367;52.508;13.284;2023-11-21T12:26:13;9.00;99.90
12604;DHT22;6367;52.508;13.284;2023-11-21T12:28:39;9.40;99.90
12604;DHT22;6367;52.508;13.284;2023-11-21T12:31:05;9.00;99.90
12604;DHT22;6367;52.508;13.284;2023-11-21T12:33:35;9.00;99.90
12604;DHT22;6367;52.508;13.284;2023-11-21T12:36:01;8.90;99.90
12604;DHT22;6367;52.508;13.284;2023-11-21T12:38:34;8.90;99.90
12604;DHT22;6367;52.508;13.284;2023-11-21T12:41:00;8.90;99.90
12604;DHT22;6367;52.508;13.284;2023-11-21T12:43:26;9.50;99.90
12604;DHT22;6367;52.508;13.284;2023-11-21T12:46:05;9.50;99.90
12604;DHT22;6367;52.508;13.284;2023-11-21T12:48:32;8.90;99.90
12604;DHT22;6367;52.508;13.284;2023-11-21T12:50:57;8.80;99.90
12604;DHT22;6367;52.508;13.284;2023-11-21T12:53:26;8.90;99.90
12604;DHT22;6367;52.508;13.284;2023-11-21T12:55:51;8.90;99.90
12604;DHT22;6367;52.508;13.284;2023-11-21T12:58:17;8.90;99.90
12604;DHT22;6367;52.508;13.284;2023-11-21T13:00:48;9.00;99.90
12604;DHT22;6367;52.508;13.284;2023-11-21T13:03:16;9.00;99.90
12604;DHT22;6367;52.508;13.284;2023-11-21T13:05:45;9.10;99.90
12604;DHT22;6367;52.508;13.284;2023-11-21T13:08:12;9.10;99.90
12604;DHT22;6367;52.508;13.284;2023-11-21T13:10:40;9.20;99.90
12604;DHT22;6367;52.508;13.284;2023-11-21T13:13:10;9.20;99.90
12604;DHT22;6367;52.508;13.284;2023-11-21T13:15:47;9.30;99.90
12604;DHT22;6367;52.508;13.284;2023-11-21T13:18:13;9.30;99.90
12604;DHT22;6367;52.508;13.284;2023-11-21T13:20:40;9.30;99.90
12604;DHT22;6367;52.508;13.284;2023-11-21T13:23:10;9.30;99.90
12604;DHT22;6367;52.508;13.284;2023-11-21T13:25:41;9.30;99.90
12604;DHT22;6367;52.508;13.284;2023-11-21T13:28:08;9.20;99.90
12604;DHT22;6367;52.508;13.284;2023-11-21T13:30:37;9.20;99.90
12604;DHT22;6367;52.508;13.284;2023-11-21T13:33:06;9.30;99.90
12604;DHT22;6367;52.508;13.284;2023-11-21T13:35:37;9.20;99.90
12604;DHT22;6367;52.508;13.284;2023-11-21T13:38:08;9.20;99.90
12604;DHT22;6367;52.508;13.284;2023-11-21T13:40:35;9.20;99.90
12604;DHT22;6367;52.508;13.284;2023-11-21T13:43:09;9.80;99.90
12604;DHT22;6367;52.508;13.284;2023-11-21T13:45:42;9.10;99.90
12604;DHT22;6367;52.508;13.284;2023-11-21T13:48:09;9.20;99.90
12604;DHT22;6367;52.508;13.284;2023-11-21T13:50:40;9.10;99.90
12604;DHT22;6367;52.508;13.284;2023-11-21T13:53:14;9.00;99.90
12604;DHT22;6367;52.508;13.284;2023-11-21T13:55:49;9.00;99.90
12604;DHT22;6367;52.508;13.284;2023-11-21T13:58:16;8.90;99.90
12604;DHT22;6367;52.508;13.284;2023-11-21T14:00:49;8.90;99.90
12604;DHT22;6367;52.508;13.284;2023-11-21T14:03:22;8.80;99.90
12604;DHT22;6367;52.508;13.284;2023-11-21T14:05:58;8.80;99.90
12604;DHT22;6367;52.508;13.284;2023-11-21T14:08:26;8.70;99.90
12604;DHT22;6367;52.508;13.284;2023-11-21T14:10:57;8.70;99.90
12604;DHT22;6367;52.508;13.284;2023-11-21T14:13:25;8.70;99.90
12604;DHT22;6367;52.508;13.284;2023-11-21T14:15:52;8.60;99.90
12604;DHT22;6367;52.508;13.284;2023-11-21T14:18:26;8.60;99.90
12604;DHT22;6367;52.508;13.284;2023-11-21T14:21:04;8.60;99.90
12604;DHT22;6367;52.508;13.284;2023-11-21T14:23:31;8.60;99.90
12604;DHT22;6367;52.508;13.284;2023-11-21T14:25:58;8.60;99.90
12604;DHT22;6367;52.508;13.284;2023-11-21T14:28:26;8.60;99.90
12604;DHT22;6367;52.508;13.284;2023-11-21T14:30:52;8.50;99.90
12604;DHT22;6367;52.508;13.284;2023-11-21T14:33:17;8.50;99.90
12604;DHT22;6367;52.508;13.284;2023-11-21T14:35:43;8.50;99.90
12604;DHT22;6367;52.508;13.284;2023-11-21T14:38:10;8.40;99.90
12604;DHT22;6367;52.508;13.284;2023-11-21T14:40:36;8.20;99.90
12604;DHT22;6367;52.508;13.284;2023-11-21T14:43:02;8.60;99.90
12604;DHT22;6367;52.508;13.284;2023-11-21T14:45:31;7.90;99.90
12604;DHT22;6367;52.508;13.284;2023-11-21T14:47:57;8.00;99.90
12604;DHT22;6367;52.508;13.284;2023-11-21T14:50:34;8.00;99.90
12604;DHT22;6367;52.508;13.284;2023-11-21T14:53:03;8.00;99.90
12604;DHT22;6367;52.508;13.284;2023-11-21T14:55:32;8.60;99.90
12604;DHT22;6367;52.508;13.284;2023-11-21T14:58:06;7.90;99.90
12604;DHT22;6367;52.508;13.284;2023-11-21T15:00:37;7.80;99.90
12604;DHT22;6367;52.508;13.284;2023-11-21T15:03:10;7.70;99.90
12604;DHT22;6367;52.508;13.284;2023-11-21T15:05:43;7.70;99.90
12604;DHT22;6367;52.508;13.284;2023-11-21T15:08:09;7.70;99.90
12604;DHT22;6367;52.508;13.284;2023-11-21T15:10:51;7.80;99.90
12604;DHT22;6367;52.508;13.284;2023-11-21T15:13:20;7.70;99.90
12604;DHT22;6367;52.508;13.284;2023-11-21T15:15:48;7.70;99.90
12604;DHT22;6367;52.508;13.284;2023-11-21T15:18:14;7.70;99.90
12604;DHT22;6367;52.508;13.284;2023-11-21T15:20:40;7.70;99.90
12604;DHT22;6367;52.508;13.284;2023-11-21T15:23:07;8.50;99.90
12604;DHT22;6367;52.508;13.284;2023-11-21T15:25:33;7.70;99.90
12604;DHT22;6367;52.508;13.284;2023-11-21T15:28:01;8.30;99.90
12604;DHT22;6367;52.508;13.284;2023-11-21T15:30:26;7.60;99.90
12604;DHT22;6367;52.508;13.284;2023-11-21T15:32:52;7.60;99.90
12604;DHT22;6367;52.508;13.284;2023-11-21T15:35:20;7.50;99.90
12604;DHT22;6367;52.508;13.284;2023-11-21T15:37:46;7.70;99.90
12604;DHT22;6367;52.508;13.284;2023-11-21T15:40:12;7.60;99.90
12604;DHT22;6367;52.508;13.284;2023-11-21T15:42:40;7.70;99.90
12604;DHT22;6367;52.508;13.284;2023-11-21T15:45:06;7.70;99.90
12604;DHT22;6367;52.508;13.284;2023-11-21T15:47:34;7.60;99.90
12604;DHT22;6367;52.508;13.284;2023-11-21T15:50:00;8.30;99.90
12604;DHT22;6367;52.508;13.284;2023-11-21T15:52:26;7.60;99.90
12604;DHT22;6367;52.508;13.284;2023-11-21T15:54:54;7.60;99.90